Aviation Digital Data Service (ADDS)

Output produced by METARs form (0603 UTC 18 January 2018)
found at http://www.aviationweather.gov/adds/metars/
 
LLBG 180550Z 17013KT 9999 FEW030 14/09 Q1014 NOSIG RMK BKN073
TAF LLBG 180502Z 1806/1906 18010KT 9999 SCT040 
     BECMG 1810/1813 20018KT 
     TEMPO 1813/1820 20018G28KT 6000 NSC 
     FM182000 28020KT 7000 RA FEW020TCU BKN030 
     TEMPO 1820/1906 28024G34KT 4000 TSRA FEW018CB BKN025 TX19/1812Z TN11/1904Z
       
LLET 180550Z 36004KT CAVOK 14/06 Q1017
TAF LLET 180500Z 1806/1906 03006KT CAVOK 
     BECMG 1808/1811 18007KT 
     BECMG 1818/1821 25012KT 9999 SCT040 
     PROB40 1900/1906 28018KT 5000 HZ TX22/1812Z TN10/1904Z
       
LLHA 180550Z 19011KT 7000 -RA FEW018 SCT032 BKN048 14/11 Q1012
TAF LLHA 180507Z 1806/1906 15010KT 9999 SCT040 
     BECMG 1807/1809 20017KT 
     TEMPO 1809/1817 20020G30KT -RA BKN030 
     FM181700 25020KT 7000 RA SCT020TCU BKN025 
     TEMPO 1817/1906 28025G40KT TSRA FEW018CB BKN025 TX18/1812Z TN11/1904Z
       
LLIB 180550Z 17005KT 140V200 0900 FG VV002 11/11 Q1013 RMK RERA
TAF LLIB 180508Z 1806/1906 18012KT 5000 BR SCT010 
     BECMG 1810/1812 22018KT 7000 NSW SCT025 
     TEMPO 1816/1818 23018G28KT 4000 SHRA SCT010 SCT015TCU BKN020 
     TEMPO 1818/1906 28018G28KT 2000 TSRA SCT010 FEW015CB BKN018 TX15/1812Z TN07/1904Z
       
LLOV 180550Z AUTO 24005KT CAVOK 09/05 Q1017
TAF LLOV 180501Z 1806/1906 22010KT CAVOK 
     BECMG 1812/1815 19015KT 8000 
     TEMPO 1817/1822 21018G28KT 3000 DU 
     FM182200 27018KT 4000 DU SCT040 
     TEMPO 1822/1906 28018G28KT 2000 -RA DU BKN035 TX18/1812Z TN10/1904Z
       
LLSD 180550Z 16010KT 130V190 9999 FEW030 14/09 Q1014 RMK SCT064
TAF LLSD 180509Z 1806/1906 17013KT 9999 SCT035 
     BECMG 1807/1809 22020KT 
     TEMPO 1809/1820 24025G35KT 7000 
     FM182000 27020KT 7000 RA FEW020TCU BKN030 
     TEMPO 1820/1906 28025G35KT 4000 TSRA FEW020CB BKN025 TX17/1812Z TN11/1904Z
       
LLBG 180550Z 17013KT 9999 FEW030 14/09 Q1014 NOSIG RMK BKN073
TAF LLBG 180502Z 1806/1906 18010KT 9999 SCT040 
     BECMG 1810/1813 20018KT 
     TEMPO 1813/1820 20018G28KT 6000 NSC 
     FM182000 28020KT 7000 RA FEW020TCU BKN030 
     TEMPO 1820/1906 28024G34KT 4000 TSRA FEW018CB BKN025 TX19/1812Z TN11/1904Z
       
LLET 180550Z 36004KT CAVOK 14/06 Q1017
TAF LLET 180500Z 1806/1906 03006KT CAVOK 
     BECMG 1808/1811 18007KT 
     BECMG 1818/1821 25012KT 9999 SCT040 
     PROB40 1900/1906 28018KT 5000 HZ TX22/1812Z TN10/1904Z
       
LLHA 180550Z 19011KT 7000 -RA FEW018 SCT032 BKN048 14/11 Q1012
TAF LLHA 180507Z 1806/1906 15010KT 9999 SCT040 
     BECMG 1807/1809 20017KT 
     TEMPO 1809/1817 20020G30KT -RA BKN030 
     FM181700 25020KT 7000 RA SCT020TCU BKN025 
     TEMPO 1817/1906 28025G40KT TSRA FEW018CB BKN025 TX18/1812Z TN11/1904Z
       
LLIB 180550Z 17005KT 140V200 0900 FG VV002 11/11 Q1013 RMK RERA
TAF LLIB 180508Z 1806/1906 18012KT 5000 BR SCT010 
     BECMG 1810/1812 22018KT 7000 NSW SCT025 
     TEMPO 1816/1818 23018G28KT 4000 SHRA SCT010 SCT015TCU BKN020 
     TEMPO 1818/1906 28018G28KT 2000 TSRA SCT010 FEW015CB BKN018 TX15/1812Z TN07/1904Z
       
LLOV 180550Z AUTO 24005KT CAVOK 09/05 Q1017
TAF LLOV 180501Z 1806/1906 22010KT CAVOK 
     BECMG 1812/1815 19015KT 8000 
     TEMPO 1817/1822 21018G28KT 3000 DU 
     FM182200 27018KT 4000 DU SCT040 
     TEMPO 1822/1906 28018G28KT 2000 -RA DU BKN035 TX18/1812Z TN10/1904Z
       
LLSD 180550Z 16010KT 130V190 9999 FEW030 14/09 Q1014 RMK SCT064
TAF LLSD 180509Z 1806/1906 17013KT 9999 SCT035 
     BECMG 1807/1809 22020KT 
     TEMPO 1809/1820 24025G35KT 7000 
     FM182000 27020KT 7000 RA FEW020TCU BKN030 
     TEMPO 1820/1906 28025G35KT 4000 TSRA FEW020CB BKN025 TX17/1812Z TN11/1904Z